createdAt,value
2023-04-09T00:00:06.327Z,27.46
2023-04-09T00:02:34.685Z,27.72
2023-04-09T00:05:03.406Z,27.37
2023-04-09T00:07:31.789Z,27.57
2023-04-09T00:10:01.789Z,27.32
2023-04-09T00:12:30.427Z,27.64
2023-04-09T00:14:59.033Z,27.70
2023-04-09T00:17:27.326Z,27.72
2023-04-09T00:19:56.342Z,27.48
2023-04-09T00:22:24.517Z,27.57
2023-04-09T00:24:53.053Z,27.45
2023-04-09T00:27:22.679Z,27.34
2023-04-09T00:29:51.417Z,27.42
2023-04-09T00:32:19.789Z,27.30
2023-04-09T00:34:48.534Z,27.24
2023-04-09T00:37:16.797Z,27.47
2023-04-09T00:39:45.560Z,27.47
2023-04-09T00:42:13.876Z,27.24
2023-04-09T00:44:44.106Z,27.10
2023-04-09T00:47:12.415Z,27.13
2023-04-09T00:49:41.100Z,27.25
2023-04-09T00:52:09.276Z,27.68
2023-04-09T00:54:38.627Z,27.70
2023-04-09T00:57:06.791Z,27.64
2023-04-09T00:59:35.333Z,27.69
2023-04-09T01:02:04.962Z,27.52
2023-04-09T01:04:33.590Z,27.98
2023-04-09T01:07:07.779Z,27.53
2023-04-09T01:09:38.643Z,27.91
2023-04-09T01:12:11.834Z,27.46
2023-04-09T01:14:45.024Z,27.41
2023-04-09T01:17:24.802Z,27.01
2023-04-09T01:20:00.394Z,27.51
2023-04-09T01:22:34.054Z,27.59
2023-04-09T01:25:06.742Z,27.63
2023-04-09T01:27:44.927Z,27.27
2023-04-09T01:30:16.335Z,27.29
2023-04-09T01:32:45.334Z,27.77
2023-04-09T01:35:14.122Z,27.86
2023-04-09T01:37:42.953Z,27.75
2023-04-09T01:40:12.360Z,27.96
2023-04-09T01:42:41.158Z,27.76
2023-04-09T01:45:12.176Z,27.62
2023-04-09T01:47:41.884Z,27.58
2023-04-09T01:50:11.442Z,27.65
2023-04-09T01:52:39.562Z,28.05
2023-04-09T01:55:09.184Z,27.64
2023-04-09T01:57:38.676Z,27.55
2023-04-09T02:00:09.492Z,27.81
2023-04-09T02:02:44.403Z,27.16
2023-04-09T02:05:14.002Z,27.86
2023-04-09T02:07:45.332Z,27.48
2023-04-09T02:10:17.384Z,27.53
2023-04-09T02:12:52.657Z,27.12
2023-04-09T02:15:21.638Z,27.59
2023-04-09T02:17:51.598Z,27.35
2023-04-09T02:20:20.460Z,27.80
2023-04-09T02:22:48.807Z,27.83
2023-04-09T02:25:17.231Z,27.62
2023-04-09T02:27:45.352Z,27.64
2023-04-09T02:30:13.741Z,27.50
2023-04-09T02:32:41.838Z,27.78
2023-04-09T02:35:11.964Z,27.63
2023-04-09T02:37:40.101Z,27.86
2023-04-09T02:40:09.452Z,27.57
2023-04-09T02:42:37.590Z,27.84
2023-04-09T02:45:06.721Z,27.62
2023-04-09T02:47:34.864Z,27.61
2023-04-09T02:50:03.331Z,27.52
2023-04-09T02:52:32.815Z,27.23
2023-04-09T02:55:01.403Z,27.50
2023-04-09T02:57:30.544Z,27.45
2023-04-09T02:59:58.973Z,27.20
2023-04-09T03:02:27.461Z,27.21
2023-04-09T03:04:55.972Z,27.27
2023-04-09T03:07:24.329Z,27.50
2023-04-09T03:09:54.328Z,26.96
2023-04-09T03:12:22.453Z,27.40
2023-04-09T03:14:50.969Z,27.23
2023-04-09T03:17:19.261Z,27.34
2023-04-09T03:19:47.577Z,27.27
2023-04-09T03:22:15.735Z,27.50
2023-04-09T03:24:44.254Z,27.54
2023-04-09T03:27:13.886Z,27.41
2023-04-09T03:29:42.358Z,27.32
2023-04-09T03:32:10.563Z,27.60
2023-04-09T03:34:38.963Z,27.39
2023-04-09T03:37:07.180Z,27.43
2023-04-09T03:39:35.661Z,27.41
2023-04-09T03:42:04.023Z,27.69
2023-04-09T03:44:34.051Z,27.26
2023-04-09T03:47:03.397Z,27.49
2023-04-09T03:49:31.885Z,27.55
2023-04-09T03:52:00.138Z,27.51
2023-04-09T03:54:30.676Z,27.16
2023-04-09T03:56:58.925Z,27.32
2023-04-09T03:59:27.316Z,27.53
2023-04-09T04:01:58.076Z,27.24
2023-04-09T04:04:26.751Z,27.62
2023-04-09T04:06:54.944Z,27.56
2023-04-09T04:09:23.613Z,27.38
2023-04-09T04:11:51.970Z,27.55
2023-04-09T04:14:20.347Z,27.58
2023-04-09T04:16:48.555Z,27.58
2023-04-09T04:19:18.525Z,27.19
2023-04-09T04:21:46.742Z,27.43
2023-04-09T04:24:15.166Z,27.33
2023-04-09T04:26:43.318Z,27.23
2023-04-09T04:29:11.679Z,27.03
2023-04-09T04:31:39.949Z,27.08
2023-04-09T04:34:08.506Z,27.13
2023-04-09T04:36:38.408Z,26.92
2023-04-09T04:39:06.845Z,27.22
2023-04-09T04:41:35.033Z,27.20
2023-04-09T04:44:03.517Z,27.37
2023-04-09T04:46:31.857Z,27.05
2023-04-09T04:49:00.333Z,26.95
2023-04-09T04:51:28.663Z,26.81
2023-04-09T04:53:58.634Z,26.57
2023-04-09T04:56:26.836Z,26.91
2023-04-09T04:58:55.208Z,26.79
2023-04-09T05:01:23.442Z,26.73
2023-04-09T05:03:52.048Z,26.72
2023-04-09T05:06:20.410Z,26.74
2023-04-09T05:08:48.926Z,26.53
2023-04-09T05:11:18.475Z,26.12
2023-04-09T05:13:46.973Z,26.51
2023-04-09T05:16:18.768Z,25.75
2023-04-09T05:18:47.617Z,26.53
2023-04-09T05:21:16.000Z,26.16
2023-04-09T05:23:44.431Z,26.24
2023-04-09T05:26:12.899Z,26.29
2023-04-09T05:28:42.811Z,25.77
2023-04-09T05:31:13.452Z,25.73
2023-04-09T05:33:42.097Z,25.62
2023-04-09T05:36:10.326Z,25.77
2023-04-09T05:38:38.766Z,25.64
2023-04-09T05:41:07.176Z,25.46
2023-04-09T05:43:35.757Z,25.63
2023-04-09T05:46:05.907Z,25.12
2023-04-09T05:48:37.164Z,24.87
2023-04-09T05:51:05.777Z,25.38
2023-04-09T05:53:34.207Z,25.43
2023-04-09T05:56:02.457Z,25.50
2023-04-09T05:58:30.962Z,25.63
2023-04-09T06:00:59.136Z,25.20
2023-04-09T06:03:29.395Z,24.88
2023-04-09T06:05:57.864Z,25.22
2023-04-09T06:08:26.529Z,25.39
2023-04-09T06:10:54.919Z,25.31
2023-04-09T06:13:23.414Z,25.16
2023-04-09T06:15:52.371Z,25.04
2023-04-09T06:18:20.829Z,25.08
2023-04-09T06:20:50.621Z,24.86
2023-04-09T06:23:19.126Z,24.88
2023-04-09T06:25:47.301Z,24.70
2023-04-09T06:28:15.863Z,24.65
2023-04-09T06:30:44.073Z,24.71
2023-04-09T06:33:12.647Z,24.54
2023-04-09T06:35:40.773Z,24.57
2023-04-09T06:38:11.122Z,24.40
2023-04-09T06:40:40.040Z,24.45
2023-04-09T06:43:09.669Z,24.59
2023-04-09T06:45:40.223Z,24.45
2023-04-09T06:48:09.581Z,24.47
2023-04-09T06:50:37.708Z,24.39
2023-04-09T06:53:07.776Z,24.01
2023-04-09T06:55:37.438Z,24.26
2023-04-09T06:58:05.858Z,24.41
2023-04-09T07:00:33.992Z,24.42
2023-04-09T07:03:02.771Z,24.35
2023-04-09T07:05:31.820Z,24.20
2023-04-09T07:08:00.300Z,24.01
2023-04-09T07:10:28.633Z,24.09
2023-04-09T07:12:58.795Z,23.90
2023-04-09T07:15:27.186Z,23.93
2023-04-09T07:17:57.678Z,23.84
2023-04-09T07:20:25.931Z,23.38
2023-04-09T07:22:54.462Z,23.25
2023-04-09T07:25:22.966Z,23.20
2023-04-09T07:27:51.346Z,23.17
2023-04-09T07:30:21.110Z,22.94
2023-04-09T07:32:50.075Z,22.99
2023-04-09T07:35:18.687Z,22.75
2023-04-09T07:37:47.265Z,22.55
2023-04-09T07:40:15.666Z,22.52
2023-04-09T07:42:44.113Z,22.68
2023-04-09T07:45:12.364Z,22.47
2023-04-09T07:47:42.321Z,22.12
2023-04-09T07:50:11.430Z,22.41
2023-04-09T07:52:40.116Z,22.36
2023-04-09T07:55:08.597Z,22.01
2023-04-09T07:57:37.037Z,22.11
2023-04-09T08:00:09.451Z,22.30
2023-04-09T08:02:38.103Z,22.37
2023-04-09T08:05:08.845Z,22.04
2023-04-09T08:07:37.469Z,22.55
2023-04-09T08:10:06.463Z,22.70
2023-04-09T08:12:35.166Z,22.95
2023-04-09T08:15:04.124Z,22.94
2023-04-09T08:17:32.692Z,22.61
2023-04-09T08:20:00.888Z,22.81
2023-04-09T08:22:31.049Z,22.36
2023-04-09T08:25:01.477Z,22.61
2023-04-09T08:27:31.521Z,22.79
2023-04-09T08:29:59.749Z,23.02
2023-04-09T08:32:28.392Z,22.86
2023-04-09T08:34:57.076Z,23.15
2023-04-09T08:37:25.711Z,23.21
2023-04-09T08:39:55.475Z,22.86
2023-04-09T08:42:24.416Z,22.23
2023-04-09T08:44:52.585Z,22.32
2023-04-09T08:47:21.890Z,22.34
2023-04-09T08:49:50.416Z,22.23
2023-04-09T08:52:22.110Z,22.33
2023-04-09T08:54:50.729Z,20.94
2023-04-09T08:57:20.783Z,21.63
2023-04-09T08:59:49.078Z,21.99
2023-04-09T09:02:17.908Z,22.14
2023-04-09T09:04:47.432Z,22.42
2023-04-09T09:07:16.630Z,22.13
2023-04-09T09:09:55.719Z,21.55
2023-04-09T09:12:36.862Z,21.68
2023-04-09T09:15:05.788Z,22.56
2023-04-09T09:17:34.412Z,22.54
2023-04-09T09:20:20.651Z,21.39
2023-04-09T09:22:55.133Z,21.50
2023-04-09T09:25:25.910Z,22.21
2023-04-09T09:27:56.339Z,22.29
2023-04-09T09:30:25.941Z,22.42
2023-04-09T09:32:55.482Z,22.39
2023-04-09T09:35:23.901Z,22.44
2023-04-09T09:38:03.680Z,21.63
2023-04-09T09:40:32.120Z,22.05
2023-04-09T09:43:02.055Z,21.74
2023-04-09T09:45:30.686Z,21.80
2023-04-09T09:47:59.222Z,21.14
2023-04-09T09:50:28.645Z,21.00
2023-04-09T09:53:03.812Z,20.44
2023-04-09T09:55:34.017Z,20.44
2023-04-09T09:58:07.575Z,20.31
2023-04-09T10:00:38.510Z,20.49
2023-04-09T10:03:11.793Z,20.39
2023-04-09T10:05:40.610Z,20.56
2023-04-09T10:08:09.272Z,20.70
2023-04-09T10:10:38.686Z,20.52
2023-04-09T10:13:09.950Z,20.27
2023-04-09T10:15:38.445Z,20.72
2023-04-09T10:18:07.121Z,20.51
2023-04-09T10:20:41.161Z,19.82
2023-04-09T10:23:15.838Z,19.77
2023-04-09T10:25:44.408Z,20.02
2023-04-09T10:28:19.285Z,19.13
2023-04-09T10:30:48.205Z,19.45
2023-04-09T10:33:19.390Z,19.20
2023-04-09T10:35:48.724Z,19.42
2023-04-09T10:38:17.201Z,19.40
2023-04-09T10:40:49.660Z,18.70
2023-04-09T10:43:21.238Z,18.29
2023-04-09T10:45:53.353Z,17.28
2023-04-09T10:48:22.850Z,18.03
2023-04-09T10:50:52.207Z,18.37
2023-04-09T10:53:24.920Z,18.04
2023-04-09T10:55:56.918Z,17.97
2023-04-09T10:58:27.146Z,18.03
2023-04-09T11:00:55.543Z,18.07
2023-04-09T11:03:27.409Z,17.45
2023-04-09T11:06:00.123Z,17.23
2023-04-09T11:08:32.761Z,16.65
2023-04-09T11:11:02.112Z,16.50
2023-04-09T11:13:33.088Z,15.78
2023-04-09T11:16:03.510Z,15.08
2023-04-09T11:18:34.648Z,14.33
2023-04-09T11:21:04.415Z,13.92
2023-04-09T11:23:33.795Z,13.92
2023-04-09T11:26:02.936Z,14.11
2023-04-09T11:28:32.857Z,13.87
2023-04-09T11:31:01.827Z,14.19
2023-04-09T11:33:34.335Z,13.31
2023-04-09T11:36:02.781Z,12.94
2023-04-09T11:38:32.735Z,11.32
2023-04-09T11:41:01.359Z,10.70
2023-04-09T11:43:29.808Z,11.41
2023-04-09T11:46:00.361Z,11.68
2023-04-09T11:48:28.808Z,11.89
2023-04-09T11:50:57.122Z,12.54
2023-04-09T11:53:32.126Z,12.30
2023-04-09T11:56:00.783Z,12.47
2023-04-09T11:58:29.266Z,12.35
2023-04-09T12:01:01.083Z,12.28
2023-04-09T12:03:31.322Z,12.16
2023-04-09T12:06:02.780Z,12.15
2023-04-09T12:08:31.944Z,12.09
2023-04-09T12:11:10.174Z,12.16
2023-04-09T12:13:43.258Z,11.96
2023-04-09T12:16:13.269Z,11.72
2023-04-09T12:18:41.938Z,11.82
2023-04-09T12:21:10.453Z,12.30
2023-04-09T12:23:38.899Z,12.43
2023-04-09T12:26:07.132Z,12.66
2023-04-09T12:28:37.075Z,12.46
2023-04-09T12:31:05.331Z,12.67
2023-04-09T12:33:38.092Z,12.48
2023-04-09T12:36:06.602Z,12.70
2023-04-09T12:38:35.175Z,13.03
2023-04-09T12:41:03.386Z,12.57
2023-04-09T12:43:31.750Z,13.18
2023-04-09T12:46:00.278Z,13.70
2023-04-09T12:48:28.784Z,14.05
2023-04-09T12:50:58.426Z,14.18
2023-04-09T12:53:26.971Z,14.30
2023-04-09T12:55:55.467Z,14.24
2023-04-09T12:58:27.281Z,13.95
2023-04-09T13:00:56.971Z,13.56
2023-04-09T13:03:26.140Z,13.48
2023-04-09T13:05:54.555Z,13.46
2023-04-09T13:08:25.568Z,12.82
2023-04-09T13:10:54.140Z,13.11
2023-04-09T13:13:22.808Z,13.33
2023-04-09T13:15:51.065Z,13.26
2023-04-09T13:18:19.618Z,13.64
2023-04-09T13:20:47.827Z,13.71
2023-04-09T13:23:16.347Z,13.88
2023-04-09T13:25:46.078Z,14.50
2023-04-09T13:28:14.541Z,14.97
2023-04-09T13:30:42.736Z,15.13
2023-04-09T13:33:11.664Z,15.44
2023-04-09T13:35:40.037Z,15.67
2023-04-09T13:38:08.625Z,16.46
2023-04-09T13:40:36.805Z,17.75
2023-04-09T13:43:06.984Z,18.17
2023-04-09T13:45:35.398Z,17.81
2023-04-09T13:48:04.106Z,18.42
2023-04-09T13:50:32.398Z,18.55
2023-04-09T13:53:03.051Z,19.82
2023-04-09T13:55:31.349Z,20.68
2023-04-09T13:57:59.774Z,20.32
2023-04-09T14:00:29.345Z,19.60
2023-04-09T14:02:57.940Z,18.30
2023-04-09T14:05:26.410Z,18.04
2023-04-09T14:07:55.177Z,18.06
2023-04-09T14:10:23.594Z,17.66
2023-04-09T14:12:52.587Z,18.57
2023-04-09T14:15:20.763Z,18.27
2023-04-09T14:17:50.918Z,17.94
2023-04-09T14:20:21.369Z,18.20
2023-04-09T14:22:49.769Z,17.95
2023-04-09T14:25:18.160Z,17.38
2023-04-09T14:27:47.009Z,17.41
2023-04-09T14:30:15.491Z,17.60
2023-04-09T14:32:44.772Z,17.89
2023-04-09T14:35:14.515Z,17.85
2023-04-09T14:37:42.992Z,18.24
2023-04-09T14:40:11.637Z,17.98
2023-04-09T14:42:40.947Z,18.11
2023-04-09T14:45:10.249Z,18.07
2023-04-09T14:47:38.949Z,18.39
2023-04-09T14:50:07.801Z,18.38
2023-04-09T14:52:37.673Z,17.99
2023-04-09T14:55:12.157Z,18.35
2023-04-09T14:57:40.779Z,18.22
2023-04-09T15:00:10.226Z,18.10
2023-04-09T15:02:39.753Z,18.52
2023-04-09T15:05:09.240Z,18.50
2023-04-09T15:07:39.214Z,18.83
2023-04-09T15:10:08.722Z,18.67
2023-04-09T15:12:48.446Z,18.90
2023-04-09T15:15:16.737Z,18.96
2023-04-09T15:17:45.515Z,19.34
2023-04-09T15:20:14.307Z,19.40
2023-04-09T15:22:44.417Z,19.44
2023-04-09T15:25:14.155Z,19.97
2023-04-09T15:27:42.894Z,20.28
2023-04-09T15:30:11.557Z,20.21
2023-04-09T15:32:40.241Z,20.28
2023-04-09T15:35:09.093Z,20.36
2023-04-09T15:37:37.508Z,20.50
2023-04-09T15:40:08.279Z,20.28
2023-04-09T15:42:36.906Z,20.55
2023-04-09T15:45:05.494Z,20.51
2023-04-09T15:47:34.033Z,20.49
2023-04-09T15:50:02.155Z,20.77
2023-04-09T15:52:30.618Z,20.92
2023-04-09T15:54:58.764Z,20.77
2023-04-09T15:57:28.902Z,20.76
2023-04-09T16:00:15.005Z,20.30
2023-04-09T16:02:43.544Z,20.82
2023-04-09T16:05:12.215Z,21.05
2023-04-09T16:07:40.747Z,20.99
2023-04-09T16:10:09.878Z,20.96
2023-04-09T16:12:39.781Z,20.96
2023-04-09T16:15:09.428Z,20.90
2023-04-09T16:17:40.820Z,21.25
2023-04-09T16:20:10.624Z,20.90
2023-04-09T16:22:39.312Z,21.33
2023-04-09T16:25:08.636Z,21.26
2023-04-09T16:27:37.481Z,21.65
2023-04-09T16:30:08.191Z,21.46
2023-04-09T16:32:37.000Z,21.76
2023-04-09T16:35:05.487Z,21.63
2023-04-09T16:37:35.164Z,21.66
2023-04-09T16:40:04.607Z,21.84
2023-04-09T16:42:35.872Z,21.93
2023-04-09T16:45:11.095Z,21.82
2023-04-09T16:47:41.906Z,21.72
2023-04-09T16:50:13.895Z,21.46
2023-04-09T16:52:43.621Z,21.93
2023-04-09T16:55:15.085Z,22.15
2023-04-09T16:57:43.566Z,22.40
2023-04-09T17:00:16.852Z,22.14
2023-04-09T17:02:46.035Z,22.37
2023-04-09T17:05:15.953Z,22.53
2023-04-09T17:07:44.691Z,22.59
2023-04-09T17:10:13.682Z,22.53
2023-04-09T17:12:48.455Z,22.54
2023-04-09T17:15:18.166Z,22.44
2023-04-09T17:17:48.061Z,22.68
2023-04-09T17:20:17.102Z,22.80
2023-04-09T17:22:45.686Z,22.63
2023-04-09T17:25:14.148Z,23.04
2023-04-09T17:27:43.974Z,23.28
2023-04-09T17:30:13.160Z,23.00
2023-04-09T17:32:44.258Z,22.89
2023-04-09T17:35:12.549Z,23.36
2023-04-09T17:37:41.118Z,23.34
2023-04-09T17:40:10.809Z,23.40
2023-04-09T17:42:39.998Z,23.79
2023-04-09T17:45:09.671Z,23.74
2023-04-09T17:47:39.258Z,24.01
2023-04-09T17:50:10.298Z,23.90
2023-04-09T17:52:39.355Z,24.18
2023-04-09T17:55:08.658Z,24.56
2023-04-09T17:57:37.197Z,24.55
2023-04-09T18:00:09.029Z,24.47
2023-04-09T18:02:37.749Z,24.75
2023-04-09T18:05:07.365Z,24.78
2023-04-09T18:07:42.968Z,24.37
2023-04-09T18:10:18.236Z,24.54
2023-04-09T18:12:46.722Z,24.92
2023-04-09T18:15:16.880Z,25.10
2023-04-09T18:17:45.380Z,25.14
2023-04-09T18:20:17.618Z,24.82
2023-04-09T18:22:50.021Z,24.73
2023-04-09T18:25:22.328Z,24.82
2023-04-09T18:27:52.863Z,25.17
2023-04-09T18:30:21.400Z,25.21
2023-04-09T18:32:53.914Z,25.27
2023-04-09T18:35:25.351Z,25.41
2023-04-09T18:38:05.397Z,25.18
2023-04-09T18:40:33.785Z,25.44
2023-04-09T18:43:09.457Z,25.16
2023-04-09T18:45:37.732Z,25.56
2023-04-09T18:48:06.344Z,25.69
2023-04-09T18:50:42.906Z,25.64
2023-04-09T18:53:19.134Z,25.25
2023-04-09T18:55:47.327Z,25.72
2023-04-09T18:58:16.294Z,25.75
2023-04-09T19:00:44.757Z,25.68
2023-04-09T19:03:13.699Z,25.61
2023-04-09T19:05:42.600Z,25.64
2023-04-09T19:08:16.804Z,25.90
2023-04-09T19:10:50.066Z,25.72
2023-04-09T19:13:18.713Z,26.15
2023-04-09T19:15:47.183Z,26.44
2023-04-09T19:18:17.082Z,26.33
2023-04-09T19:20:45.266Z,26.36
2023-04-09T19:23:14.097Z,26.40
2023-04-09T19:25:43.040Z,26.72
2023-04-09T19:28:12.959Z,26.42
2023-04-09T19:30:41.359Z,26.78
2023-04-09T19:33:09.836Z,26.63
2023-04-09T19:35:40.866Z,26.74
2023-04-09T19:38:09.651Z,26.75
2023-04-09T19:40:37.969Z,26.64
2023-04-09T19:43:06.506Z,26.69
2023-04-09T19:45:37.373Z,26.19
2023-04-09T19:48:06.249Z,26.71
2023-04-09T19:50:37.358Z,26.31
2023-04-09T19:53:05.978Z,25.42
2023-04-09T19:55:37.798Z,26.00
2023-04-09T19:58:06.924Z,26.27
2023-04-09T20:00:36.867Z,26.24
2023-04-09T20:03:07.225Z,26.21
2023-04-09T20:05:35.961Z,26.19
2023-04-09T20:08:04.656Z,26.42
2023-04-09T20:10:33.037Z,26.52
2023-04-09T20:13:01.707Z,26.47
2023-04-09T20:15:29.972Z,26.59
2023-04-09T20:17:59.894Z,26.30
2023-04-09T20:20:28.163Z,26.63
2023-04-09T20:22:56.905Z,26.48
2023-04-09T20:25:25.598Z,26.46
2023-04-09T20:27:55.125Z,26.41
2023-04-09T20:30:23.713Z,26.18
2023-04-09T20:32:52.329Z,26.44
2023-04-09T20:35:22.223Z,26.12
2023-04-09T20:37:51.454Z,26.48
2023-04-09T20:40:19.692Z,26.24
2023-04-09T20:42:48.224Z,26.36
2023-04-09T20:45:16.986Z,26.34
2023-04-09T20:47:45.557Z,26.07
2023-04-09T20:50:13.939Z,26.20
2023-04-09T20:52:44.759Z,25.98
2023-04-09T20:55:12.905Z,26.37
2023-04-09T20:57:41.479Z,26.30
2023-04-09T21:00:11.122Z,26.15
2023-04-09T21:02:40.480Z,26.13
2023-04-09T21:05:22.470Z,26.27
2023-04-09T21:07:54.387Z,25.90
2023-04-09T21:10:22.733Z,26.41
2023-04-09T21:12:51.178Z,26.16
2023-04-09T21:15:19.465Z,26.24
2023-04-09T21:17:48.002Z,26.32
2023-04-09T21:20:17.128Z,26.21
2023-04-09T21:22:45.854Z,26.21
2023-04-09T21:25:16.071Z,25.90
2023-04-09T21:27:44.690Z,26.34
2023-04-09T21:30:13.378Z,26.53
2023-04-09T21:32:42.288Z,26.48
2023-04-09T21:35:10.946Z,26.52
2023-04-09T21:37:39.425Z,26.50
2023-04-09T21:40:09.070Z,26.40
2023-04-09T21:42:38.901Z,26.28
2023-04-09T21:45:08.088Z,26.63
2023-04-09T21:47:36.778Z,26.82
2023-04-09T21:50:05.320Z,26.87
2023-04-09T21:52:34.285Z,26.61
2023-04-09T21:55:02.476Z,26.67
2023-04-09T21:57:31.057Z,26.66
2023-04-09T22:00:01.236Z,26.40
2023-04-09T22:02:30.102Z,26.67
2023-04-09T22:05:00.219Z,26.60
2023-04-09T22:07:28.907Z,26.72
2023-04-09T22:09:58.590Z,26.52
2023-04-09T22:12:27.271Z,26.94
2023-04-09T22:14:55.572Z,27.04
2023-04-09T22:17:25.573Z,26.89
2023-04-09T22:19:53.725Z,27.17
2023-04-09T22:22:22.162Z,27.20
2023-04-09T22:24:50.335Z,27.21
2023-04-09T22:27:18.699Z,27.12
2023-04-09T22:29:47.065Z,27.21
2023-04-09T22:32:16.773Z,27.17
2023-04-09T22:34:46.654Z,27.02
2023-04-09T22:37:17.120Z,27.33
2023-04-09T22:39:45.342Z,27.39
2023-04-09T22:42:13.784Z,27.54
2023-04-09T22:44:42.025Z,27.52
2023-04-09T22:47:10.487Z,27.44
2023-04-09T22:49:38.786Z,27.63
2023-04-09T22:52:08.858Z,27.38
2023-04-09T22:54:38.125Z,27.73
2023-04-09T22:57:06.452Z,27.65
2023-04-09T22:59:40.171Z,27.66
2023-04-09T23:02:09.376Z,27.67
2023-04-09T23:04:37.608Z,27.72
2023-04-09T23:07:06.148Z,27.85
2023-04-09T23:09:35.908Z,27.52
2023-04-09T23:12:04.403Z,27.69
2023-04-09T23:14:32.549Z,27.66
2023-04-09T23:17:01.153Z,27.75
2023-04-09T23:19:29.316Z,27.83
2023-04-09T23:21:57.973Z,27.76
2023-04-09T23:24:26.145Z,27.84
2023-04-09T23:26:56.315Z,27.62
2023-04-09T23:29:24.702Z,27.83
2023-04-09T23:31:53.298Z,27.80
2023-04-09T23:34:21.643Z,27.67
2023-04-09T23:36:50.109Z,27.69
2023-04-09T23:39:18.268Z,27.83
2023-04-09T23:41:46.694Z,27.70
2023-04-09T23:44:16.397Z,27.47
2023-04-09T23:46:44.960Z,27.85
2023-04-09T23:49:13.102Z,27.66
2023-04-09T23:51:41.522Z,27.92
2023-04-09T23:54:10.637Z,27.93
2023-04-09T23:56:39.124Z,27.83
2023-04-09T23:59:07.285Z,27.65
